sensor_id;sensor_type;location;lat;lon;timestamp;temperature;humidity
52889;DHT22;41413;52.770;6.892;2023-06-10T00:00:12;20.60;88.80
52889;DHT22;41413;52.770;6.892;2023-06-10T00:02:41;20.50;88.90
52889;DHT22;41413;52.770;6.892;2023-06-10T00:05:09;20.50;88.90
52889;DHT22;41413;52.770;6.892;2023-06-10T00:07:36;20.50;89.20
52889;DHT22;41413;52.770;6.892;2023-06-10T00:10:05;20.50;89.30
52889;DHT22;41413;52.770;6.892;2023-06-10T00:12:33;20.40;89.40
52889;DHT22;41413;52.770;6.892;2023-06-10T00:15:06;20.40;89.60
52889;DHT22;41413;52.770;6.892;2023-06-10T00:17:33;20.40;89.80
52889;DHT22;41413;52.770;6.892;2023-06-10T00:20:00;20.30;90.00
52889;DHT22;41413;52.770;6.892;2023-06-10T00:22:30;20.30;90.20
52889;DHT22;41413;52.770;6.892;2023-06-10T00:24:58;20.20;90.30
52889;DHT22;41413;52.770;6.892;2023-06-10T00:27:25;20.20;90.30
52889;DHT22;41413;52.770;6.892;2023-06-10T00:29:57;20.20;90.40
52889;DHT22;41413;52.770;6.892;2023-06-10T00:32:24;20.10;90.50
52889;DHT22;41413;52.770;6.892;2023-06-10T00:34:51;20.00;90.60
52889;DHT22;41413;52.770;6.892;2023-06-10T00:37:18;20.00;90.70
52889;DHT22;41413;52.770;6.892;2023-06-10T00:39:44;20.00;90.80
52889;DHT22;41413;52.770;6.892;2023-06-10T00:42:11;19.90;90.90
52889;DHT22;41413;52.770;6.892;2023-06-10T00:44:38;19.90;91.00
52889;DHT22;41413;52.770;6.892;2023-06-10T00:47:05;19.90;91.00
52889;DHT22;41413;52.770;6.892;2023-06-10T00:49:33;19.90;91.20
52889;DHT22;41413;52.770;6.892;2023-06-10T00:52:01;19.80;91.30
52889;DHT22;41413;52.770;6.892;2023-06-10T00:54:28;19.80;91.30
52889;DHT22;41413;52.770;6.892;2023-06-10T00:56:56;19.70;91.40
52889;DHT22;41413;52.770;6.892;2023-06-10T00:59:23;19.70;91.50
52889;DHT22;41413;52.770;6.892;2023-06-10T01:01:51;19.70;91.60
52889;DHT22;41413;52.770;6.892;2023-06-10T01:04:19;19.70;91.60
52889;DHT22;41413;52.770;6.892;2023-06-10T01:15:01;19.50;92.10
52889;DHT22;41413;52.770;6.892;2023-06-10T01:17:28;19.50;92.00
52889;DHT22;41413;52.770;6.892;2023-06-10T01:19:56;19.40;92.00
52889;DHT22;41413;52.770;6.892;2023-06-10T01:22:27;19.40;92.10
52889;DHT22;41413;52.770;6.892;2023-06-10T01:24:59;19.40;92.30
52889;DHT22;41413;52.770;6.892;2023-06-10T01:27:29;19.30;92.30
52889;DHT22;41413;52.770;6.892;2023-06-10T01:30:08;19.30;92.40
52889;DHT22;41413;52.770;6.892;2023-06-10T01:32:41;19.20;92.60
52889;DHT22;41413;52.770;6.892;2023-06-10T01:35:10;19.30;92.60
52889;DHT22;41413;52.770;6.892;2023-06-10T01:37:43;19.20;92.70
52889;DHT22;41413;52.770;6.892;2023-06-10T01:40:12;19.20;92.70
52889;DHT22;41413;52.770;6.892;2023-06-10T01:42:40;19.10;92.80
52889;DHT22;41413;52.770;6.892;2023-06-10T01:45:07;19.10;92.90
52889;DHT22;41413;52.770;6.892;2023-06-10T01:47:34;19.00;93.00
52889;DHT22;41413;52.770;6.892;2023-06-10T01:50:01;19.00;93.10
52889;DHT22;41413;52.770;6.892;2023-06-10T01:52:28;19.00;93.20
52889;DHT22;41413;52.770;6.892;2023-06-10T01:54:54;18.90;93.30
52889;DHT22;41413;52.770;6.892;2023-06-10T01:57:21;18.80;93.40
52889;DHT22;41413;52.770;6.892;2023-06-10T01:59:48;18.80;93.50
52889;DHT22;41413;52.770;6.892;2023-06-10T02:02:14;18.80;93.60
52889;DHT22;41413;52.770;6.892;2023-06-10T02:04:42;18.70;93.60
52889;DHT22;41413;52.770;6.892;2023-06-10T02:07:08;18.70;93.80
52889;DHT22;41413;52.770;6.892;2023-06-10T02:09:35;18.70;93.80
52889;DHT22;41413;52.770;6.892;2023-06-10T02:12:03;18.70;93.90
52889;DHT22;41413;52.770;6.892;2023-06-10T02:14:32;18.60;94.00
52889;DHT22;41413;52.770;6.892;2023-06-10T02:16:59;18.60;94.10
52889;DHT22;41413;52.770;6.892;2023-06-10T02:19:27;18.50;94.10
52889;DHT22;41413;52.770;6.892;2023-06-10T02:21:54;18.50;94.20
52889;DHT22;41413;52.770;6.892;2023-06-10T02:24:21;18.50;94.20
52889;DHT22;41413;52.770;6.892;2023-06-10T02:26:48;18.40;94.30
52889;DHT22;41413;52.770;6.892;2023-06-10T02:29:15;18.30;94.50
52889;DHT22;41413;52.770;6.892;2023-06-10T02:31:41;18.30;94.60
52889;DHT22;41413;52.770;6.892;2023-06-10T02:34:08;18.30;94.50
52889;DHT22;41413;52.770;6.892;2023-06-10T02:36:35;18.30;94.60
52889;DHT22;41413;52.770;6.892;2023-06-10T02:39:03;18.30;94.70
52889;DHT22;41413;52.770;6.892;2023-06-10T02:41:31;18.20;94.80
52889;DHT22;41413;52.770;6.892;2023-06-10T02:43:57;18.20;94.80
52889;DHT22;41413;52.770;6.892;2023-06-10T02:46:24;18.10;94.90
52889;DHT22;41413;52.770;6.892;2023-06-10T02:48:51;18.10;94.90
52889;DHT22;41413;52.770;6.892;2023-06-10T02:51:18;18.00;95.00
52889;DHT22;41413;52.770;6.892;2023-06-10T02:53:45;17.90;95.10
52889;DHT22;41413;52.770;6.892;2023-06-10T02:56:13;18.00;95.10
52889;DHT22;41413;52.770;6.892;2023-06-10T02:58:40;17.90;95.20
52889;DHT22;41413;52.770;6.892;2023-06-10T03:01:07;17.80;95.30
52889;DHT22;41413;52.770;6.892;2023-06-10T03:03:36;17.80;95.40
52889;DHT22;41413;52.770;6.892;2023-06-10T03:06:12;17.80;95.40
52889;DHT22;41413;52.770;6.892;2023-06-10T03:08:39;17.80;95.50
52889;DHT22;41413;52.770;6.892;2023-06-10T03:11:06;17.80;95.40
52889;DHT22;41413;52.770;6.892;2023-06-10T03:13:33;17.70;95.50
52889;DHT22;41413;52.770;6.892;2023-06-10T03:16:00;17.70;95.50
52889;DHT22;41413;52.770;6.892;2023-06-10T03:18:27;17.70;95.70
52889;DHT22;41413;52.770;6.892;2023-06-10T03:20:55;17.60;95.80
52889;DHT22;41413;52.770;6.892;2023-06-10T03:23:23;17.60;95.90
52889;DHT22;41413;52.770;6.892;2023-06-10T03:25:50;17.50;96.10
52889;DHT22;41413;52.770;6.892;2023-06-10T03:28:16;17.50;96.10
52889;DHT22;41413;52.770;6.892;2023-06-10T03:30:43;17.50;96.20
52889;DHT22;41413;52.770;6.892;2023-06-10T03:33:10;17.40;96.30
52889;DHT22;41413;52.770;6.892;2023-06-10T03:35:37;17.40;96.40
52889;DHT22;41413;52.770;6.892;2023-06-10T03:38:03;17.40;96.50
52889;DHT22;41413;52.770;6.892;2023-06-10T03:40:30;17.40;96.60
52889;DHT22;41413;52.770;6.892;2023-06-10T03:42:58;17.30;96.70
52889;DHT22;41413;52.770;6.892;2023-06-10T03:45:25;17.40;96.80
52889;DHT22;41413;52.770;6.892;2023-06-10T03:47:54;17.30;97.00
52889;DHT22;41413;52.770;6.892;2023-06-10T03:50:22;17.30;97.10
52889;DHT22;41413;52.770;6.892;2023-06-10T03:52:50;17.30;97.20
52889;DHT22;41413;52.770;6.892;2023-06-10T03:55:17;17.20;97.30
52889;DHT22;41413;52.770;6.892;2023-06-10T03:57:44;17.20;97.50
52889;DHT22;41413;52.770;6.892;2023-06-10T04:00:11;17.20;97.60
52889;DHT22;41413;52.770;6.892;2023-06-10T04:02:38;17.20;97.80
52889;DHT22;41413;52.770;6.892;2023-06-10T04:05:16;17.20;98.00
52889;DHT22;41413;52.770;6.892;2023-06-10T04:07:44;17.20;98.10
52889;DHT22;41413;52.770;6.892;2023-06-10T04:10:11;17.10;98.30
52889;DHT22;41413;52.770;6.892;2023-06-10T04:12:38;17.10;98.40
52889;DHT22;41413;52.770;6.892;2023-06-10T04:15:05;17.10;98.60
52889;DHT22;41413;52.770;6.892;2023-06-10T04:17:33;17.10;98.70
52889;DHT22;41413;52.770;6.892;2023-06-10T04:20:00;17.10;98.90
52889;DHT22;41413;52.770;6.892;2023-06-10T04:22:27;17.10;99.00
52889;DHT22;41413;52.770;6.892;2023-06-10T04:24:54;17.10;99.10
52889;DHT22;41413;52.770;6.892;2023-06-10T04:27:20;17.10;99.50
52889;DHT22;41413;52.770;6.892;2023-06-10T04:29:47;17.10;99.40
52889;DHT22;41413;52.770;6.892;2023-06-10T04:32:14;17.00;99.60
52889;DHT22;41413;52.770;6.892;2023-06-10T04:34:40;17.10;99.70
52889;DHT22;41413;52.770;6.892;2023-06-10T04:37:07;17.10;99.90
52889;DHT22;41413;52.770;6.892;2023-06-10T04:39:34;17.10;99.90
52889;DHT22;41413;52.770;6.892;2023-06-10T04:42:04;17.20;99.90
52889;DHT22;41413;52.770;6.892;2023-06-10T04:44:32;17.10;99.90
52889;DHT22;41413;52.770;6.892;2023-06-10T04:46:58;17.10;99.90
52889;DHT22;41413;52.770;6.892;2023-06-10T04:49:25;17.10;99.90
52889;DHT22;41413;52.770;6.892;2023-06-10T04:51:52;17.10;99.90
52889;DHT22;41413;52.770;6.892;2023-06-10T04:54:19;17.20;99.90
52889;DHT22;41413;52.770;6.892;2023-06-10T04:56:45;17.20;99.90
52889;DHT22;41413;52.770;6.892;2023-06-10T04:59:13;17.20;99.90
52889;DHT22;41413;52.770;6.892;2023-06-10T05:01:41;17.10;99.90
52889;DHT22;41413;52.770;6.892;2023-06-10T05:04:08;17.10;99.90
52889;DHT22;41413;52.770;6.892;2023-06-10T05:06:35;17.20;99.90
52889;DHT22;41413;52.770;6.892;2023-06-10T05:09:03;17.20;99.90
52889;DHT22;41413;52.770;6.892;2023-06-10T05:11:29;17.20;99.90
52889;DHT22;41413;52.770;6.892;2023-06-10T05:13:56;17.30;99.90
52889;DHT22;41413;52.770;6.892;2023-06-10T05:16:23;17.30;99.90
52889;DHT22;41413;52.770;6.892;2023-06-10T05:18:50;17.30;99.90
52889;DHT22;41413;52.770;6.892;2023-06-10T05:21:18;17.30;99.90
52889;DHT22;41413;52.770;6.892;2023-06-10T05:23:45;17.40;99.90
52889;DHT22;41413;52.770;6.892;2023-06-10T05:26:12;17.40;99.90
52889;DHT22;41413;52.770;6.892;2023-06-10T05:28:39;17.40;99.90
52889;DHT22;41413;52.770;6.892;2023-06-10T05:31:06;17.40;99.90
52889;DHT22;41413;52.770;6.892;2023-06-10T05:33:32;17.50;99.90
52889;DHT22;41413;52.770;6.892;2023-06-10T05:35:59;17.50;99.90
52889;DHT22;41413;52.770;6.892;2023-06-10T05:38:26;17.50;99.90
52889;DHT22;41413;52.770;6.892;2023-06-10T05:40:52;17.50;99.90
52889;DHT22;41413;52.770;6.892;2023-06-10T05:43:20;17.40;99.90
52889;DHT22;41413;52.770;6.892;2023-06-10T05:45:46;17.50;99.90
52889;DHT22;41413;52.770;6.892;2023-06-10T05:48:13;17.60;99.90
52889;DHT22;41413;52.770;6.892;2023-06-10T05:50:40;17.60;99.90
52889;DHT22;41413;52.770;6.892;2023-06-10T05:53:09;17.60;99.90
52889;DHT22;41413;52.770;6.892;2023-06-10T05:55:45;17.60;99.90
52889;DHT22;41413;52.770;6.892;2023-06-10T05:58:14;17.60;99.90
52889;DHT22;41413;52.770;6.892;2023-06-10T06:00:41;17.60;99.90
52889;DHT22;41413;52.770;6.892;2023-06-10T06:03:08;17.60;99.90
52889;DHT22;41413;52.770;6.892;2023-06-10T06:05:38;17.70;99.90
52889;DHT22;41413;52.770;6.892;2023-06-10T06:08:05;17.70;99.90
52889;DHT22;41413;52.770;6.892;2023-06-10T06:10:32;17.70;99.90
52889;DHT22;41413;52.770;6.892;2023-06-10T06:13:00;17.80;99.90
52889;DHT22;41413;52.770;6.892;2023-06-10T06:15:27;18.00;99.90
52889;DHT22;41413;52.770;6.892;2023-06-10T06:17:54;17.90;99.90
52889;DHT22;41413;52.770;6.892;2023-06-10T06:20:23;17.90;99.90
52889;DHT22;41413;52.770;6.892;2023-06-10T06:22:49;18.00;99.90
52889;DHT22;41413;52.770;6.892;2023-06-10T06:25:16;18.00;99.90
52889;DHT22;41413;52.770;6.892;2023-06-10T06:27:43;18.00;99.90
52889;DHT22;41413;52.770;6.892;2023-06-10T06:30:10;18.10;99.90
52889;DHT22;41413;52.770;6.892;2023-06-10T06:32:37;18.10;99.90
52889;DHT22;41413;52.770;6.892;2023-06-10T06:35:04;18.10;99.90
52889;DHT22;41413;52.770;6.892;2023-06-10T06:37:35;18.20;99.90
52889;DHT22;41413;52.770;6.892;2023-06-10T06:40:02;18.20;99.90
52889;DHT22;41413;52.770;6.892;2023-06-10T06:42:30;18.20;99.90
52889;DHT22;41413;52.770;6.892;2023-06-10T06:44:57;18.20;99.90
52889;DHT22;41413;52.770;6.892;2023-06-10T06:47:23;18.30;99.90
52889;DHT22;41413;52.770;6.892;2023-06-10T06:49:51;18.40;99.90
52889;DHT22;41413;52.770;6.892;2023-06-10T06:52:18;18.70;99.90
52889;DHT22;41413;52.770;6.892;2023-06-10T06:54:46;18.90;99.90
52889;DHT22;41413;52.770;6.892;2023-06-10T06:57:12;18.90;99.90
52889;DHT22;41413;52.770;6.892;2023-06-10T06:59:39;18.90;99.90
52889;DHT22;41413;52.770;6.892;2023-06-10T07:02:06;18.90;99.90
52889;DHT22;41413;52.770;6.892;2023-06-10T07:04:33;18.90;99.90
52889;DHT22;41413;52.770;6.892;2023-06-10T07:07:00;18.90;99.90
52889;DHT22;41413;52.770;6.892;2023-06-10T07:09:26;18.90;99.90
52889;DHT22;41413;52.770;6.892;2023-06-10T07:11:54;19.00;99.90
52889;DHT22;41413;52.770;6.892;2023-06-10T07:14:21;19.00;99.90
52889;DHT22;41413;52.770;6.892;2023-06-10T07:16:48;19.10;99.90
52889;DHT22;41413;52.770;6.892;2023-06-10T07:19:16;19.10;99.90
52889;DHT22;41413;52.770;6.892;2023-06-10T07:21:43;19.10;99.90
52889;DHT22;41413;52.770;6.892;2023-06-10T07:24:09;19.10;99.90
52889;DHT22;41413;52.770;6.892;2023-06-10T07:26:36;19.20;99.90
52889;DHT22;41413;52.770;6.892;2023-06-10T07:29:03;19.20;99.90
52889;DHT22;41413;52.770;6.892;2023-06-10T07:31:29;19.20;99.90
52889;DHT22;41413;52.770;6.892;2023-06-10T07:33:57;19.30;99.90
52889;DHT22;41413;52.770;6.892;2023-06-10T07:36:23;19.20;99.90
52889;DHT22;41413;52.770;6.892;2023-06-10T07:38:54;19.30;99.90
52889;DHT22;41413;52.770;6.892;2023-06-10T07:41:23;19.30;99.90
52889;DHT22;41413;52.770;6.892;2023-06-10T07:43:53;19.30;99.90
52889;DHT22;41413;52.770;6.892;2023-06-10T07:46:22;19.30;99.90
52889;DHT22;41413;52.770;6.892;2023-06-10T07:48:49;19.40;99.90
52889;DHT22;41413;52.770;6.892;2023-06-10T07:51:17;19.40;99.90
52889;DHT22;41413;52.770;6.892;2023-06-10T07:53:44;19.40;99.90
52889;DHT22;41413;52.770;6.892;2023-06-10T07:56:11;19.40;99.90
52889;DHT22;41413;52.770;6.892;2023-06-10T07:58:38;19.50;99.90
52889;DHT22;41413;52.770;6.892;2023-06-10T08:01:05;19.70;99.90
52889;DHT22;41413;52.770;6.892;2023-06-10T08:03:31;19.90;99.90
52889;DHT22;41413;52.770;6.892;2023-06-10T08:05:58;20.00;99.90
52889;DHT22;41413;52.770;6.892;2023-06-10T08:08:25;20.00;99.90
52889;DHT22;41413;52.770;6.892;2023-06-10T08:10:52;20.00;99.90
52889;DHT22;41413;52.770;6.892;2023-06-10T08:13:19;20.00;99.90
52889;DHT22;41413;52.770;6.892;2023-06-10T08:15:45;20.10;99.90
52889;DHT22;41413;52.770;6.892;2023-06-10T08:18:14;20.10;99.90
52889;DHT22;41413;52.770;6.892;2023-06-10T08:20:41;20.00;99.90
52889;DHT22;41413;52.770;6.892;2023-06-10T08:23:07;20.10;99.90
52889;DHT22;41413;52.770;6.892;2023-06-10T08:25:34;20.20;99.90
52889;DHT22;41413;52.770;6.892;2023-06-10T08:28:01;20.40;99.90
52889;DHT22;41413;52.770;6.892;2023-06-10T08:30:28;21.10;99.90
52889;DHT22;41413;52.770;6.892;2023-06-10T08:32:55;22.30;99.90
52889;DHT22;41413;52.770;6.892;2023-06-10T08:35:22;23.60;99.50
52889;DHT22;41413;52.770;6.892;2023-06-10T08:37:49;24.50;98.20
52889;DHT22;41413;52.770;6.892;2023-06-10T08:40:16;25.40;97.20
52889;DHT22;41413;52.770;6.892;2023-06-10T08:42:48;26.30;96.20
52889;DHT22;41413;52.770;6.892;2023-06-10T08:45:20;27.00;94.70
52889;DHT22;41413;52.770;6.892;2023-06-10T08:47:50;27.40;93.20
52889;DHT22;41413;52.770;6.892;2023-06-10T08:50:21;27.90;92.90
52889;DHT22;41413;52.770;6.892;2023-06-10T08:52:50;28.40;92.30
52889;DHT22;41413;52.770;6.892;2023-06-10T08:55:32;28.70;91.10
52889;DHT22;41413;52.770;6.892;2023-06-10T08:58:00;29.20;89.10
52889;DHT22;41413;52.770;6.892;2023-06-10T09:00:28;29.30;91.00
52889;DHT22;41413;52.770;6.892;2023-06-10T09:02:57;29.70;90.00
52889;DHT22;41413;52.770;6.892;2023-06-10T09:05:33;30.00;88.10
52889;DHT22;41413;52.770;6.892;2023-06-10T09:08:01;30.40;87.40
52889;DHT22;41413;52.770;6.892;2023-06-10T09:10:28;30.20;86.40
52889;DHT22;41413;52.770;6.892;2023-06-10T09:12:54;30.40;88.00
52889;DHT22;41413;52.770;6.892;2023-06-10T09:15:22;30.80;84.40
52889;DHT22;41413;52.770;6.892;2023-06-10T09:17:49;31.00;84.70
52889;DHT22;41413;52.770;6.892;2023-06-10T09:20:15;31.00;83.90
52889;DHT22;41413;52.770;6.892;2023-06-10T09:22:43;31.10;85.00
52889;DHT22;41413;52.770;6.892;2023-06-10T09:25:11;30.90;85.00
52889;DHT22;41413;52.770;6.892;2023-06-10T09:32:56;31.30;82.30
52889;DHT22;41413;52.770;6.892;2023-06-10T09:35:24;31.50;83.10
52889;DHT22;41413;52.770;6.892;2023-06-10T09:37:59;31.50;83.20
52889;DHT22;41413;52.770;6.892;2023-06-10T09:40:26;31.60;81.80
52889;DHT22;41413;52.770;6.892;2023-06-10T09:42:59;31.60;82.00
52889;DHT22;41413;52.770;6.892;2023-06-10T09:45:32;31.20;81.00
52889;DHT22;41413;52.770;6.892;2023-06-10T09:48:00;31.40;80.90
52889;DHT22;41413;52.770;6.892;2023-06-10T09:50:27;31.30;79.90
52889;DHT22;41413;52.770;6.892;2023-06-10T09:52:54;31.20;79.50
52889;DHT22;41413;52.770;6.892;2023-06-10T09:55:21;31.50;80.30
52889;DHT22;41413;52.770;6.892;2023-06-10T09:57:53;31.20;79.10
52889;DHT22;41413;52.770;6.892;2023-06-10T10:00:22;31.10;78.10
52889;DHT22;41413;52.770;6.892;2023-06-10T10:02:51;31.00;77.30
52889;DHT22;41413;52.770;6.892;2023-06-10T10:05:20;30.70;78.70
52889;DHT22;41413;52.770;6.892;2023-06-10T10:07:48;30.70;78.20
52889;DHT22;41413;52.770;6.892;2023-06-10T10:10:17;31.10;77.70
52889;DHT22;41413;52.770;6.892;2023-06-10T10:12:46;31.10;77.10
52889;DHT22;41413;52.770;6.892;2023-06-10T10:15:16;30.90;76.60
52889;DHT22;41413;52.770;6.892;2023-06-10T10:17:58;31.10;75.30
52889;DHT22;41413;52.770;6.892;2023-06-10T10:20:29;30.80;73.80
52889;DHT22;41413;52.770;6.892;2023-06-10T10:22:58;30.90;74.30
52889;DHT22;41413;52.770;6.892;2023-06-10T10:25:32;31.20;76.00
52889;DHT22;41413;52.770;6.892;2023-06-10T10:28:11;31.10;76.60
52889;DHT22;41413;52.770;6.892;2023-06-10T10:30:44;31.30;76.50
52889;DHT22;41413;52.770;6.892;2023-06-10T10:33:20;31.10;71.50
52889;DHT22;41413;52.770;6.892;2023-06-10T10:35:50;31.30;72.50
52889;DHT22;41413;52.770;6.892;2023-06-10T10:38:17;31.50;73.80
52889;DHT22;41413;52.770;6.892;2023-06-10T10:40:44;31.30;73.30
52889;DHT22;41413;52.770;6.892;2023-06-10T10:43:12;31.30;72.40
52889;DHT22;41413;52.770;6.892;2023-06-10T10:45:40;31.20;71.30
52889;DHT22;41413;52.770;6.892;2023-06-10T10:48:09;31.00;70.90
52889;DHT22;41413;52.770;6.892;2023-06-10T10:50:39;31.10;72.40
52889;DHT22;41413;52.770;6.892;2023-06-10T10:53:07;30.80;71.60
52889;DHT22;41413;52.770;6.892;2023-06-10T10:55:34;31.20;71.20
52889;DHT22;41413;52.770;6.892;2023-06-10T10:58:06;31.10;69.80
52889;DHT22;41413;52.770;6.892;2023-06-10T11:00:35;31.30;70.10
52889;DHT22;41413;52.770;6.892;2023-06-10T11:05:39;31.10;67.60
52889;DHT22;41413;52.770;6.892;2023-06-10T11:08:08;31.10;66.80
52889;DHT22;41413;52.770;6.892;2023-06-10T11:10:37;31.30;69.30
52889;DHT22;41413;52.770;6.892;2023-06-10T11:13:09;31.50;70.00
52889;DHT22;41413;52.770;6.892;2023-06-10T11:15:44;31.30;68.70
52889;DHT22;41413;52.770;6.892;2023-06-10T11:18:29;31.60;69.20
52889;DHT22;41413;52.770;6.892;2023-06-10T11:20:59;31.50;67.30
52889;DHT22;41413;52.770;6.892;2023-06-10T11:33:59;32.20;64.70
52889;DHT22;41413;52.770;6.892;2023-06-10T11:36:27;32.10;63.80
52889;DHT22;41413;52.770;6.892;2023-06-10T11:39:05;31.80;64.40
52889;DHT22;41413;52.770;6.892;2023-06-10T11:41:33;32.00;64.10
52889;DHT22;41413;52.770;6.892;2023-06-10T11:44:08;31.90;64.60
52889;DHT22;41413;52.770;6.892;2023-06-10T11:46:35;32.30;64.10
52889;DHT22;41413;52.770;6.892;2023-06-10T11:49:03;32.30;63.90
52889;DHT22;41413;52.770;6.892;2023-06-10T11:51:36;31.90;64.50
52889;DHT22;41413;52.770;6.892;2023-06-10T11:54:04;32.20;65.50
52889;DHT22;41413;52.770;6.892;2023-06-10T11:56:32;31.80;62.40
52889;DHT22;41413;52.770;6.892;2023-06-10T11:59:04;31.80;63.20
52889;DHT22;41413;52.770;6.892;2023-06-10T12:01:33;31.90;62.60
52889;DHT22;41413;52.770;6.892;2023-06-10T12:04:06;32.10;63.10
52889;DHT22;41413;52.770;6.892;2023-06-10T12:06:47;31.50;61.60
52889;DHT22;41413;52.770;6.892;2023-06-10T12:12:01;31.50;62.50
52889;DHT22;41413;52.770;6.892;2023-06-10T12:14:54;31.60;63.40
52889;DHT22;41413;52.770;6.892;2023-06-10T12:19:51;31.50;62.80
52889;DHT22;41413;52.770;6.892;2023-06-10T12:22:18;31.70;64.20
52889;DHT22;41413;52.770;6.892;2023-06-10T12:25:01;31.60;63.80
52889;DHT22;41413;52.770;6.892;2023-06-10T12:27:29;31.90;62.80
52889;DHT22;41413;52.770;6.892;2023-06-10T12:29:57;31.80;62.60
52889;DHT22;41413;52.770;6.892;2023-06-10T12:32:40;32.10;63.10
52889;DHT22;41413;52.770;6.892;2023-06-10T12:35:09;32.10;62.30
52889;DHT22;41413;52.770;6.892;2023-06-10T12:37:37;32.10;62.70
52889;DHT22;41413;52.770;6.892;2023-06-10T12:40:09;32.00;62.90
52889;DHT22;41413;52.770;6.892;2023-06-10T12:42:36;32.00;63.30
52889;DHT22;41413;52.770;6.892;2023-06-10T12:45:04;32.10;60.40
52889;DHT22;41413;52.770;6.892;2023-06-10T12:47:35;31.70;58.00
52889;DHT22;41413;52.770;6.892;2023-06-10T12:50:03;31.70;58.70
52889;DHT22;41413;52.770;6.892;2023-06-10T12:52:30;31.90;59.40
52889;DHT22;41413;52.770;6.892;2023-06-10T12:54:58;32.10;59.00
52889;DHT22;41413;52.770;6.892;2023-06-10T12:57:25;32.10;58.90
52889;DHT22;41413;52.770;6.892;2023-06-10T12:59:52;31.90;57.80
52889;DHT22;41413;52.770;6.892;2023-06-10T13:02:20;31.70;58.30
52889;DHT22;41413;52.770;6.892;2023-06-10T13:04:47;31.80;58.90
52889;DHT22;41413;52.770;6.892;2023-06-10T13:07:15;31.90;58.40
52889;DHT22;41413;52.770;6.892;2023-06-10T13:09:42;31.80;58.40
52889;DHT22;41413;52.770;6.892;2023-06-10T13:12:09;31.50;58.00
52889;DHT22;41413;52.770;6.892;2023-06-10T13:14:42;31.70;58.80
52889;DHT22;41413;52.770;6.892;2023-06-10T13:17:09;31.70;59.00
52889;DHT22;41413;52.770;6.892;2023-06-10T13:19:36;31.90;59.30
52889;DHT22;41413;52.770;6.892;2023-06-10T13:22:03;32.10;58.50
52889;DHT22;41413;52.770;6.892;2023-06-10T13:24:30;32.10;57.70
52889;DHT22;41413;52.770;6.892;2023-06-10T13:26:56;32.30;58.40
52889;DHT22;41413;52.770;6.892;2023-06-10T13:29:24;32.40;57.00
52889;DHT22;41413;52.770;6.892;2023-06-10T13:31:51;32.20;56.90
52889;DHT22;41413;52.770;6.892;2023-06-10T13:34:18;32.10;57.30
52889;DHT22;41413;52.770;6.892;2023-06-10T13:36:44;31.90;57.40
52889;DHT22;41413;52.770;6.892;2023-06-10T13:39:11;31.90;57.70
52889;DHT22;41413;52.770;6.892;2023-06-10T13:41:41;31.80;57.30
52889;DHT22;41413;52.770;6.892;2023-06-10T13:44:08;31.70;57.20
52889;DHT22;41413;52.770;6.892;2023-06-10T13:46:34;31.70;57.20
52889;DHT22;41413;52.770;6.892;2023-06-10T13:49:01;31.60;57.10
52889;DHT22;41413;52.770;6.892;2023-06-10T13:51:28;31.60;56.50
52889;DHT22;41413;52.770;6.892;2023-06-10T13:53:55;31.70;57.20
52889;DHT22;41413;52.770;6.892;2023-06-10T13:56:22;31.70;57.30
52889;DHT22;41413;52.770;6.892;2023-06-10T13:58:49;31.70;57.50
52889;DHT22;41413;52.770;6.892;2023-06-10T14:01:16;31.90;58.00
52889;DHT22;41413;52.770;6.892;2023-06-10T14:03:42;31.90;58.20
52889;DHT22;41413;52.770;6.892;2023-06-10T14:06:09;32.00;58.10
52889;DHT22;41413;52.770;6.892;2023-06-10T14:08:39;32.00;58.00
52889;DHT22;41413;52.770;6.892;2023-06-10T14:11:07;31.90;58.10
52889;DHT22;41413;52.770;6.892;2023-06-10T14:13:34;31.90;57.30
52889;DHT22;41413;52.770;6.892;2023-06-10T14:16:01;31.70;57.70
52889;DHT22;41413;52.770;6.892;2023-06-10T14:18:29;31.60;57.40
52889;DHT22;41413;52.770;6.892;2023-06-10T14:20:56;31.70;57.60
52889;DHT22;41413;52.770;6.892;2023-06-10T14:23:22;31.60;57.80
52889;DHT22;41413;52.770;6.892;2023-06-10T14:25:51;31.50;57.30
52889;DHT22;41413;52.770;6.892;2023-06-10T14:28:17;31.70;57.20
52889;DHT22;41413;52.770;6.892;2023-06-10T14:30:44;31.50;55.00
52889;DHT22;41413;52.770;6.892;2023-06-10T14:33:11;31.40;53.20
52889;DHT22;41413;52.770;6.892;2023-06-10T14:35:38;31.30;52.80
52889;DHT22;41413;52.770;6.892;2023-06-10T14:38:04;31.10;52.10
52889;DHT22;41413;52.770;6.892;2023-06-10T14:40:34;31.10;52.60
52889;DHT22;41413;52.770;6.892;2023-06-10T14:43:00;30.90;52.20
52889;DHT22;41413;52.770;6.892;2023-06-10T14:45:28;30.90;52.60
52889;DHT22;41413;52.770;6.892;2023-06-10T14:47:55;30.70;52.20
52889;DHT22;41413;52.770;6.892;2023-06-10T14:50:22;30.60;51.80
52889;DHT22;41413;52.770;6.892;2023-06-10T14:52:48;30.70;52.50
52889;DHT22;41413;52.770;6.892;2023-06-10T14:55:15;30.70;52.50
52889;DHT22;41413;52.770;6.892;2023-06-10T14:57:42;30.70;52.70
52889;DHT22;41413;52.770;6.892;2023-06-10T15:00:09;30.80;53.00
52889;DHT22;41413;52.770;6.892;2023-06-10T15:02:36;30.80;52.80
52889;DHT22;41413;52.770;6.892;2023-06-10T15:05:03;30.70;53.10
52889;DHT22;41413;52.770;6.892;2023-06-10T15:07:30;30.90;53.80
52889;DHT22;41413;52.770;6.892;2023-06-10T15:09:57;30.80;53.30
52889;DHT22;41413;52.770;6.892;2023-06-10T15:12:24;30.90;53.70
52889;DHT22;41413;52.770;6.892;2023-06-10T15:14:51;30.80;53.30
52889;DHT22;41413;52.770;6.892;2023-06-10T15:17:18;30.80;52.10
52889;DHT22;41413;52.770;6.892;2023-06-10T15:19:45;30.70;52.70
52889;DHT22;41413;52.770;6.892;2023-06-10T15:22:12;30.60;52.80
52889;DHT22;41413;52.770;6.892;2023-06-10T15:24:39;30.40;52.50
52889;DHT22;41413;52.770;6.892;2023-06-10T15:27:06;30.40;53.30
52889;DHT22;41413;52.770;6.892;2023-06-10T15:29:33;30.50;53.90
52889;DHT22;41413;52.770;6.892;2023-06-10T15:31:59;30.50;54.30
52889;DHT22;41413;52.770;6.892;2023-06-10T15:34:26;30.50;54.50
52889;DHT22;41413;52.770;6.892;2023-06-10T15:36:53;30.60;54.70
52889;DHT22;41413;52.770;6.892;2023-06-10T15:39:20;30.60;54.70
52889;DHT22;41413;52.770;6.892;2023-06-10T15:41:46;30.60;54.90
52889;DHT22;41413;52.770;6.892;2023-06-10T15:44:13;30.50;54.60
52889;DHT22;41413;52.770;6.892;2023-06-10T15:46:40;30.40;54.60
52889;DHT22;41413;52.770;6.892;2023-06-10T15:49:07;30.40;54.80
52889;DHT22;41413;52.770;6.892;2023-06-10T15:51:33;30.40;54.90
52889;DHT22;41413;52.770;6.892;2023-06-10T15:54:00;30.30;55.10
52889;DHT22;41413;52.770;6.892;2023-06-10T15:56:27;30.30;55.10
52889;DHT22;41413;52.770;6.892;2023-06-10T15:58:54;30.40;55.30
52889;DHT22;41413;52.770;6.892;2023-06-10T16:01:20;30.30;55.10
52889;DHT22;41413;52.770;6.892;2023-06-10T16:03:47;30.20;54.70
52889;DHT22;41413;52.770;6.892;2023-06-10T16:06:14;30.10;54.40